Time;durP1;ratioP1;P1;durP2;ratioP2;P2;SDS_P1;SDS_P2;PMS_P1;PMS_P2;Temp;Humidity;BMP_temperature;BMP_pressure;BME280_temperature;BME280_humidity;BME280_pressure;Samples;Min_cycle;Max_cycle;Signal;HPM_P1;HPM_P2
2022/06/03 00:00:16;;;;;;;14.47;6.37;;;;;;;22.82;100.00;101583.66;2064995;28;20420;-68
2022/06/03 00:01:31;;;;;;;13.40;5.73;;;;;;;22.83;100.00;101582.38;2075562;28;20662;-68
2022/06/03 00:03:02;;;;;;;11.57;6.00;;;;;;;22.82;100.00;101589.31;2079563;28;20176;-68
2022/06/03 00:04:42;;;;;;;14.20;6.33;;;;;;;22.56;100.00;101551.69;2073835;28;20172;-68
2022/06/03 00:06:09;;;;;;;11.33;5.80;;;;;;;22.29;100.00;101509.72;2073860;28;20679;-68
2022/06/03 00:07:24;;;;;;;10.13;6.43;;;;;;;22.81;100.00;101590.56;2073799;28;20162;-68
2022/06/03 00:08:37;;;;;;;10.17;6.23;;;;;;;22.79;100.00;101583.88;2073797;28;20447;-68
2022/06/03 00:09:44;;;;;;;10.83;6.83;;;;;;;22.79;100.00;101595.97;2081242;28;20424;-68
2022/06/03 00:11:13;;;;;;;9.87;6.03;;;;;;;22.79;100.00;101592.34;2080615;28;20439;-68
2022/06/03 00:12:17;;;;;;;10.43;5.97;;;;;;;22.80;100.00;101594.69;2073718;28;20421;-68
2022/06/03 00:13:43;;;;;;;8.20;5.57;;;;;;;22.79;100.00;101598.00;2073513;28;20570;-68
2022/06/03 00:14:49;;;;;;;14.30;6.60;;;;;;;22.81;100.00;101595.44;2073683;28;20400;-68
2022/06/03 00:16:06;;;;;;;10.27;5.63;;;;;;;22.79;100.00;101598.78;2073711;28;20500;-68
2022/06/03 00:17:21;;;;;;;11.03;6.20;;;;;;;22.46;100.00;101543.88;2073601;28;20965;-67
2022/06/03 00:18:48;;;;;;;12.53;5.90;;;;;;;22.82;100.00;101594.94;2073690;28;20412;-68
2022/06/03 00:20:12;;;;;;;11.00;5.93;;;;;;;22.81;100.00;101592.63;2073637;28;20397;-68
2022/06/03 00:21:37;;;;;;;12.40;5.77;;;;;;;22.81;100.00;101593.41;2064900;28;20425;-68
2022/06/03 00:22:50;;;;;;;14.13;6.57;;;;;;;22.80;100.00;101594.69;2068404;28;20890;-68
2022/06/03 00:23:55;;;;;;;23.53;7.57;;;;;;;22.37;100.00;101535.50;2073616;28;20425;-68
2022/06/03 00:25:26;;;;;;;20.87;7.30;;;;;;;22.72;100.00;101589.94;2073788;28;20405;-68
2022/06/03 00:26:58;;;;;;;16.20;6.57;;;;;;;22.69;100.00;101590.91;2073642;28;20792;-67
2022/06/03 00:28:28;;;;;;;18.63;7.20;;;;;;;22.61;100.00;101592.63;2073755;28;20432;-68
2022/06/03 00:30:16;;;;;;;14.63;6.77;;;;;;;22.54;100.00;101593.00;2056479;28;20430;-68
2022/06/03 00:31:19;;;;;;;16.70;7.10;;;;;;;22.49;100.00;101596.53;2068667;28;20942;-68
2022/06/03 00:32:19;;;;;;;19.97;7.63;;;;;;;22.49;100.00;101596.53;2073687;28;20632;-67
2022/06/03 00:34:02;;;;;;;26.30;7.77;;;;;;;22.46;100.00;101594.72;2073568;28;20543;-68
2022/06/03 00:35:24;;;;;;;14.17;6.43;;;;;;;22.46;100.00;101591.88;2073780;28;20182;-68
2022/06/03 00:36:43;;;;;;;10.77;6.57;;;;;;;22.47;100.00;101591.38;2073494;28;20169;-68
2022/06/03 00:38:04;;;;;;;11.13;6.43;;;;;;;22.45;100.00;101601.59;2073535;28;20257;-68
2022/06/03 00:39:19;;;;;;;14.37;7.23;;;;;;;22.41;100.00;101598.19;2064762;28;20217;-67
2022/06/03 00:40:29;;;;;;;13.17;6.20;;;;;;;22.40;100.00;101605.88;2066789;28;20666;-68
2022/06/03 00:41:35;;;;;;;11.10;6.70;;;;;;;22.39;100.00;101607.16;2073532;28;20643;-68
2022/06/03 00:42:57;;;;;;;10.90;6.30;;;;;;;22.38;100.00;101610.47;2064721;28;21037;-68
2022/06/03 00:44:12;;;;;;;8.73;6.10;;;;;;;22.34;100.00;101598.59;2067916;28;20538;-69
2022/06/03 00:45:31;;;;;;;11.03;6.20;;;;;;;22.30;100.00;101598.78;2064696;28;20652;-68
2022/06/03 00:47:02;;;;;;;9.77;5.97;;;;;;;22.24;100.00;101600.75;2067319;28;20178;-68
2022/06/03 00:48:23;;;;;;;7.53;5.53;;;;;;;22.12;100.00;101578.47;2073492;28;20185;-69
2022/06/03 00:49:39;;;;;;;11.20;6.80;;;;;;;22.19;100.00;101595.00;2073528;28;20564;-68
2022/06/03 00:50:51;;;;;;;15.40;6.80;;;;;;;22.17;100.00;101603.19;2073507;28;20921;-67
2022/06/03 00:52:27;;;;;;;9.87;5.40;;;;;;;21.68;100.00;101527.72;2064645;28;20186;-67
2022/06/03 00:53:39;;;;;;;8.57;4.90;;;;;;;21.72;100.00;101536.78;2069743;28;20165;-68
2022/06/03 00:55:02;;;;;;;11.13;5.90;;;;;;;21.66;100.00;101535.09;2073528;28;20166;-68
2022/06/03 00:56:20;;;;;;;11.47;5.90;;;;;;;22.00;100.00;101590.88;2073459;28;20444;-67
2022/06/03 00:57:59;;;;;;;9.23;5.67;;;;;;;21.93;100.00;101597.69;2073713;28;20408;-68
2022/06/03 00:59:17;;;;;;;8.87;6.23;;;;;;;21.88;100.00;101595.53;2073484;28;20466;-67
2022/06/03 01:00:24;;;;;;;9.83;7.10;;;;;;;21.88;100.00;101595.53;2073447;28;20166;-67
2022/06/03 01:01:25;;;;;;;9.23;7.07;;;;;;;21.89;100.00;101599.91;2073380;28;20603;-67
2022/06/03 01:02:46;;;;;;;10.43;7.07;;;;;;;21.89;100.00;101602.72;2073314;28;20213;-68
2022/06/03 01:03:58;;;;;;;11.77;6.30;;;;;;;21.93;100.00;101608.97;2064554;28;20174;-68
2022/06/03 01:05:26;;;;;;;8.70;6.10;;;;;;;21.93;100.00;101602.53;2066288;28;20816;-67
2022/06/03 01:06:39;;;;;;;13.37;6.83;;;;;;;21.94;100.00;101606.91;2073366;28;20913;-67
2022/06/03 01:07:48;;;;;;;11.40;7.10;;;;;;;21.94;100.00;101604.88;2080874;28;20416;-67
2022/06/03 01:09:21;;;;;;;10.27;6.77;;;;;;;21.73;100.00;101582.69;2071599;28;20496;-67
2022/06/03 01:10:43;;;;;;;11.40;7.23;;;;;;;21.95;100.00;101614.88;2069473;28;20205;-67
2022/06/03 01:12:06;;;;;;;13.60;7.17;;;;;;;21.88;100.00;101614.50;2073485;28;20412;-68
2022/06/03 01:13:28;;;;;;;11.07;7.70;;;;;;;21.86;100.00;101612.16;2064399;28;21068;-67
2022/06/03 01:14:49;;;;;;;8.73;6.73;;;;;;;21.89;100.00;101616.06;2067877;28;20405;-68
2022/06/03 01:16:27;;;;;;;10.90;6.60;;;;;;;21.90;100.00;101609.94;2073455;28;20170;-67
2022/06/03 01:18:00;;;;;;;11.43;6.90;;;;;;;21.93;100.00;101606.16;2073292;28;20435;-68
2022/06/03 01:19:09;;;;;;;16.13;6.63;;;;;;;21.96;100.00;101615.69;2048499;29;20431;-68
2022/06/03 01:20:23;;;;;;;16.67;7.00;;;;;;;21.95;100.00;101614.13;2069258;28;20428;-68
2022/06/03 01:21:47;;;;;;;10.77;6.70;;;;;;;21.95;100.00;101616.94;2073425;28;20411;-68
2022/06/03 01:23:09;;;;;;;8.40;5.60;;;;;;;21.96;100.00;101618.50;2048380;29;20430;-68
2022/06/03 01:24:22;;;;;;;11.37;6.30;;;;;;;21.41;100.00;101539.28;2073572;28;20636;-67
2022/06/03 01:25:34;;;;;;;9.67;5.70;;;;;;;21.85;100.00;101610.59;2080862;28;20514;-67
2022/06/03 01:26:53;;;;;;;9.37;5.70;;;;;;;21.80;100.00;101604.88;2079573;28;20487;-67
2022/06/03 01:28:23;;;;;;;9.57;5.97;;;;;;;21.74;100.00;101601.19;2073349;28;20430;-68
2022/06/03 01:29:51;;;;;;;9.43;6.13;;;;;;;21.66;100.00;101605.63;2048412;29;20438;-68
2022/06/03 01:31:30;;;;;;;10.60;6.07;;;;;;;21.58;100.00;101605.22;2073411;28;20962;-67
2022/06/03 01:32:56;;;;;;;8.90;6.17;;;;;;;21.54;100.00;101603.88;2073568;28;20397;-67
2022/06/03 01:34:36;;;;;;;11.17;6.23;;;;;;;21.50;100.00;101608.91;2072090;28;20782;-67
2022/06/03 01:35:55;;;;;;;10.33;6.93;;;;;;;21.49;100.00;101613.75;2073482;28;20870;-67
2022/06/03 01:37:28;;;;;;;14.57;6.53;;;;;;;21.49;100.00;101615.81;2073208;28;21026;-67
2022/06/03 01:38:50;;;;;;;10.37;5.93;;;;;;;21.46;100.00;101620.38;2073050;28;20429;-67
2022/06/03 01:40:18;;;;;;;11.33;6.60;;;;;;;21.45;100.00;101620.88;2073333;28;20407;-67
2022/06/03 01:41:34;;;;;;;11.50;6.33;;;;;;;21.45;100.00;101618.81;2073257;28;20416;-67
2022/06/03 01:42:54;;;;;;;10.33;6.77;;;;;;;21.45;100.00;101613.16;2073218;28;20427;-68
2022/06/03 01:43:55;;;;;;;12.90;7.43;;;;;;;21.42;100.00;101619.78;2073144;28;20859;-68
2022/06/03 01:45:16;;;;;;;9.23;7.30;;;;;;;21.44;100.00;101622.88;2073274;28;20416;-67
2022/06/03 01:46:25;;;;;;;8.23;6.33;;;;;;;21.43;100.00;101618.53;2073406;28;20627;-67
2022/06/03 01:48:00;;;;;;;13.40;7.13;;;;;;;21.43;100.00;101621.34;2073341;28;20452;-67
2022/06/03 01:49:27;;;;;;;8.93;7.03;;;;;;;21.45;100.00;101620.88;2073223;28;20412;-67
2022/06/03 01:50:41;;;;;;;12.53;7.30;;;;;;;21.45;100.00;101624.44;2073203;28;20455;-67
2022/06/03 01:52:12;;;;;;;8.87;6.97;;;;;;;21.44;100.00;101625.72;2073299;28;20793;-67
2022/06/03 01:53:35;;;;;;;12.07;7.10;;;;;;;21.47;100.00;101621.16;2073355;28;20500;-67
2022/06/03 01:54:53;;;;;;;12.87;7.40;;;;;;;21.48;100.00;101625.53;2064482;28;20468;-67
2022/06/03 01:56:13;;;;;;;11.80;7.43;;;;;;;21.48;100.00;101617.06;2067272;28;20868;-68
2022/06/03 01:57:38;;;;;;;10.50;6.50;;;;;;;21.45;100.00;101623.69;2073100;28;20467;-68
2022/06/03 01:58:51;;;;;;;15.13;6.87;;;;;;;21.38;100.00;101627.66;2073204;28;20952;-68
2022/06/03 02:00:14;;;;;;;13.03;7.17;;;;;;;21.13;100.00;101588.69;2073168;28;20925;-68
2022/06/03 02:01:52;;;;;;;9.00;6.57;;;;;;;21.33;100.00;101633.19;2073458;28;20401;-68
2022/06/03 02:03:15;;;;;;;9.80;6.40;;;;;;;20.99;100.00;101575.34;2073180;28;20415;-68
2022/06/03 02:04:33;;;;;;;10.67;7.10;;;;;;;21.29;100.00;101629.78;2073313;28;20499;-68
2022/06/03 02:05:43;;;;;;;10.20;6.80;;;;;;;21.28;100.00;101637.44;2073380;28;20405;-67
2022/06/03 02:07:17;;;;;;;12.73;6.87;;;;;;;21.27;100.00;101638.72;2073371;28;20397;-67
2022/06/03 02:08:23;;;;;;;11.23;6.90;;;;;;;21.29;100.00;101636.19;2064344;28;20440;-67
2022/06/03 02:09:42;;;;;;;15.30;6.83;;;;;;;21.29;100.00;101639.00;2065157;28;20421;-68
2022/06/03 02:10:58;;;;;;;13.10;7.53;;;;;;;20.93;100.00;101588.53;2064361;28;20435;-68
2022/06/03 02:12:30;;;;;;;14.53;8.47;;;;;;;21.28;100.00;101636.69;2066727;28;20412;-67
2022/06/03 02:13:39;;;;;;;15.60;7.60;;;;;;;21.27;100.00;101637.91;2073171;28;20474;-68
2022/06/03 02:14:42;;;;;;;16.23;7.80;;;;;;;21.29;100.00;101636.19;2074623;28;20439;-67
2022/06/03 02:16:09;;;;;;;11.40;7.07;;;;;;;21.26;100.00;101634.34;2065826;28;20491;-67
2022/06/03 02:17:26;;;;;;;11.93;6.87;;;;;;;21.25;100.00;101635.59;2065670;28;20461;-67
2022/06/03 02:18:52;;;;;;;16.97;7.00;;;;;;;21.24;100.00;101638.91;2068237;28;20847;-67
2022/06/03 02:20:22;;;;;;;14.43;7.63;;;;;;;20.64;100.00;101551.78;2065557;28;20417;-67
2022/06/03 02:21:46;;;;;;;11.33;8.20;;;;;;;21.16;100.00;101644.13;2074515;28;20420;-67
2022/06/03 02:23:06;;;;;;;13.30;7.60;;;;;;;21.15;100.00;101658.69;2074621;28;20392;-68
2022/06/03 02:24:37;;;;;;;12.00;8.30;;;;;;;21.11;100.00;101653.25;2074554;28;20470;-68
2022/06/03 02:25:55;;;;;;;13.80;8.33;;;;;;;21.08;100.00;101653.44;2074504;28;20409;-68
2022/06/03 02:27:19;;;;;;;12.10;7.67;;;;;;;21.11;100.00;101656.06;2065791;28;20484;-67
2022/06/03 02:28:26;;;;;;;10.43;7.57;;;;;;;21.12;100.00;101651.19;2069228;28;20400;-68
2022/06/03 02:31:21;;;;;;;13.63;8.13;;;;;;;21.08;100.00;101650.59;2074467;28;20384;-67
2022/06/03 02:32:27;;;;;;;11.50;7.60;;;;;;;21.06;100.00;101651.09;2074475;28;20898;-67
2022/06/03 02:33:53;;;;;;;13.50;7.80;;;;;;;21.00;100.00;101646.56;2074397;28;20447;-67
2022/06/03 02:35:31;;;;;;;17.20;8.80;;;;;;;20.90;100.00;101648.69;2074442;28;20408;-67
2022/06/03 02:36:50;;;;;;;16.90;8.80;;;;;;;20.97;100.00;101653.94;2074321;28;20507;-68
2022/06/03 02:37:53;;;;;;;13.47;8.40;;;;;;;20.99;100.00;101648.59;2074534;28;20405;-67
2022/06/03 02:39:12;;;;;;;16.70;8.27;;;;;;;21.02;100.00;101658.13;2074353;28;20440;-68
2022/06/03 02:40:15;;;;;;;29.63;10.70;;;;;;;21.03;100.00;101657.66;2065617;28;20410;-67
2022/06/03 02:41:51;;;;;;;17.87;8.20;;;;;;;21.06;100.00;101659.53;2065962;28;20774;-68
2022/06/03 02:43:35;;;;;;;20.23;7.67;;;;;;;21.03;100.00;101651.28;2057237;28;20517;-68
2022/06/03 02:44:59;;;;;;;16.43;7.97;;;;;;;21.05;100.00;101660.00;2063043;28;20515;-67
2022/06/03 02:46:06;;;;;;;13.53;7.07;;;;;;;21.05;100.00;101652.34;2065456;28;20410;-67
2022/06/03 02:47:13;;;;;;;13.90;8.20;;;;;;;21.06;100.00;101658.75;2071950;28;20495;-67
2022/06/03 02:48:31;;;;;;;17.97;8.00;;;;;;;21.08;100.00;101650.59;2065590;28;20433;-67
2022/06/03 02:50:04;;;;;;;14.30;7.80;;;;;;;21.05;100.00;101654.38;2068165;28;20447;-67
2022/06/03 02:51:37;;;;;;;16.77;8.30;;;;;;;21.09;100.00;101652.16;2074384;28;20412;-68
2022/06/03 02:53:18;;;;;;;11.73;8.17;;;;;;;21.08;100.00;101654.19;2081803;28;20407;-67
2022/06/03 02:54:37;;;;;;;13.73;7.57;;;;;;;21.07;100.00;101657.47;2076759;28;20414;-68
2022/06/03 02:56:09;;;;;;;13.53;8.40;;;;;;;21.07;100.00;101652.63;2074424;28;20409;-68
2022/06/03 02:57:26;;;;;;;14.17;7.37;;;;;;;21.10;100.00;101651.69;2074263;28;20459;-67
2022/06/03 02:58:34;;;;;;;13.10;7.43;;;;;;;21.09;100.00;101655.75;2081806;28;20479;-67
2022/06/03 02:59:52;;;;;;;12.03;7.47;;;;;;;21.10;100.00;101648.88;2081001;28;20486;-68
2022/06/03 03:01:11;;;;;;;11.70;7.70;;;;;;;21.10;100.00;101653.72;2065494;28;20432;-67
2022/06/03 03:02:31;;;;;;;10.60;7.23;;;;;;;21.12;100.00;101640.69;2068145;28;20424;-67
2022/06/03 03:03:57;;;;;;;14.33;7.67;;;;;;;21.13;100.00;101645.06;2074364;28;20400;-67
2022/06/03 03:05:06;;;;;;;10.47;7.27;;;;;;;21.16;100.00;101646.16;2074224;28;20469;-67
2022/06/03 03:06:21;;;;;;;13.07;7.43;;;;;;;21.02;100.00;101627.13;2074252;28;20980;-67
2022/06/03 03:07:42;;;;;;;11.67;7.40;;;;;;;21.18;100.00;101652.09;2081726;28;20473;-67
2022/06/03 03:09:09;;;;;;;14.17;8.27;;;;;;;21.18;100.00;101652.88;2070878;28;20401;-68
2022/06/03 03:10:21;;;;;;;12.17;8.00;;;;;;;20.97;100.00;101631.41;2069281;28;20428;-67
2022/06/03 03:11:46;;;;;;;11.70;8.90;;;;;;;21.09;100.00;101666.25;2074102;28;20419;-68
2022/06/03 03:13:08;;;;;;;12.97;8.17;;;;;;;20.63;100.00;101595.28;2074158;28;20535;-67
2022/06/03 03:14:26;;;;;;;13.00;8.10;;;;;;;21.17;100.00;101667.44;2074225;28;20413;-67
2022/06/03 03:16:00;;;;;;;12.03;8.73;;;;;;;21.19;100.00;101670.56;2074130;28;20795;-67
2022/06/03 03:17:19;;;;;;;11.37;7.73;;;;;;;21.23;100.00;101674.00;2074082;28;20456;-67
2022/06/03 03:18:41;;;;;;;12.30;7.57;;;;;;;21.25;100.00;101675.06;2065334;28;20429;-68
2022/06/03 03:20:09;;;;;;;14.80;7.57;;;;;;;21.30;100.00;101679.25;2068322;28;20409;-67
2022/06/03 03:21:09;;;;;;;12.57;7.00;;;;;;;21.32;100.00;101673.91;2074175;28;20417;-67
2022/06/03 03:22:28;;;;;;;10.73;7.00;;;;;;;21.35;100.00;101672.97;2074048;28;20423;-68
2022/06/03 03:23:49;;;;;;;12.60;7.30;;;;;;;21.38;100.00;101671.97;2074042;28;20177;-68
2022/06/03 03:25:01;;;;;;;11.63;7.77;;;;;;;21.41;100.00;101682.31;2073867;28;20411;-67
2022/06/03 03:26:32;;;;;;;11.37;7.50;;;;;;;21.44;100.00;101675.72;2073410;28;20467;-67
2022/06/03 03:28:09;;;;;;;13.07;7.60;;;;;;;21.48;100.00;101681.91;2074031;28;20843;-67
2022/06/03 03:29:37;;;;;;;13.47;7.80;;;;;;;21.49;100.00;101680.69;2074128;28;20500;-67
2022/06/03 03:30:56;;;;;;;11.70;7.57;;;;;;;21.53;100.00;101675.63;2073934;28;20865;-67
2022/06/03 03:32:39;;;;;;;12.30;7.90;;;;;;;21.56;100.00;101680.31;2074032;28;20422;-67
2022/06/03 03:33:57;;;;;;;14.03;8.17;;;;;;;21.60;100.00;101680.91;2065290;28;20445;-67
2022/06/03 03:35:47;;;;;;;12.37;7.90;;;;;;;21.60;100.00;101683.72;2067927;28;20446;-67
2022/06/03 03:36:56;;;;;;;16.90;8.70;;;;;;;21.64;100.00;101685.09;2031490;29;20532;-67
2022/06/03 03:38:35;;;;;;;17.30;8.60;;;;;;;21.66;100.00;101682.56;2078867;28;20428;-67
2022/06/03 03:39:38;;;;;;;19.40;8.43;;;;;;;21.72;100.00;101685.53;2044202;29;20435;-67
2022/06/03 03:40:50;;;;;;;15.13;8.30;;;;;;;21.74;100.00;101685.84;2068153;28;20847;-67
2022/06/03 03:42:24;;;;;;;18.50;8.40;;;;;;;21.77;100.00;101680.00;2073853;28;20993;-67
2022/06/03 03:44:08;;;;;;;18.43;8.10;;;;;;;21.83;100.00;101691.38;2065163;28;20456;-68
2022/06/03 03:45:30;;;;;;;16.37;8.13;;;;;;;21.86;100.00;101688.34;2071389;28;20412;-68
2022/06/03 03:46:57;;;;;;;13.83;8.43;;;;;;;21.89;100.00;101692.25;2073882;28;20487;-67
2022/06/03 03:47:58;;;;;;;15.40;8.30;;;;;;;21.93;100.00;101695.66;2073917;28;20516;-68
2022/06/03 03:49:07;;;;;;;19.00;8.53;;;;;;;21.98;100.00;101692.16;2065004;28;20429;-68
2022/06/03 03:50:40;;;;;;;16.00;8.40;;;;;;;22.00;100.00;101686.84;2066265;28;20177;-67
2022/06/03 03:51:57;;;;;;;14.00;8.27;;;;;;;22.03;100.00;101703.56;2064891;28;20441;-68
2022/06/03 03:53:18;;;;;;;17.73;8.63;;;;;;;22.06;100.00;101693.34;2066375;28;20472;-68
2022/06/03 03:54:25;;;;;;;14.57;8.87;;;;;;;22.08;100.00;101699.28;2073876;28;20405;-67
2022/06/03 03:55:55;;;;;;;19.07;8.93;;;;;;;22.10;100.00;101700.34;2073828;28;20456;-68
2022/06/03 03:57:10;;;;;;;15.37;7.97;;;;;;;22.14;100.00;101698.13;2081281;28;20459;-67
2022/06/03 03:58:48;;;;;;;15.07;9.20;;;;;;;22.15;100.00;101705.31;2079647;28;20419;-68
2022/06/03 03:59:54;;;;;;;18.23;8.83;;;;;;;22.16;100.00;101697.63;2073852;28;20909;-67
2022/06/03 04:01:01;;;;;;;17.07;8.60;;;;;;;22.17;100.00;101710.50;2064916;28;20953;-67
2022/06/03 04:02:07;;;;;;;16.03;8.60;;;;;;;22.20;100.00;101709.50;2065839;28;20949;-68
2022/06/03 04:03:08;;;;;;;18.33;8.47;;;;;;;22.22;100.00;101710.56;2073722;28;20182;-68
2022/06/03 04:04:39;;;;;;;17.93;8.80;;;;;;;22.23;100.00;101709.31;2073742;28;20185;-67
2022/06/03 04:06:09;;;;;;;21.13;8.87;;;;;;;21.68;100.00;101632.09;2073715;28;20173;-67
2022/06/03 04:07:33;;;;;;;22.37;9.50;;;;;;;22.32;100.00;101712.03;2073740;28;20412;-68
2022/06/03 04:09:11;;;;;;;19.40;9.30;;;;;;;22.36;100.00;101717.50;2073729;28;20848;-67
2022/06/03 04:10:42;;;;;;;19.10;9.07;;;;;;;22.40;100.00;101720.88;2073722;28;20909;-67
2022/06/03 04:11:59;;;;;;;18.97;9.17;;;;;;;22.44;100.00;101721.47;2073655;28;20405;-68
2022/06/03 04:13:25;;;;;;;13.07;8.27;;;;;;;22.46;100.00;101722.56;2064837;28;20266;-68
2022/06/03 04:14:41;;;;;;;11.63;7.73;;;;;;;22.48;100.00;101722.88;2068523;28;20656;-68
2022/06/03 04:16:03;;;;;;;10.93;8.10;;;;;;;22.49;100.00;101723.66;2073675;28;20244;-68
2022/06/03 04:17:22;;;;;;;13.43;7.90;;;;;;;22.57;100.00;101719.94;2073695;28;20632;-68
2022/06/03 04:18:56;;;;;;;12.40;8.00;;;;;;;22.63;100.00;101732.09;2073598;28;20566;-68
2022/06/03 04:20:21;;;;;;;12.13;7.67;;;;;;;22.69;100.00;101720.91;2073688;28;20609;-68
2022/06/03 04:21:52;;;;;;;10.60;7.80;;;;;;;22.70;100.00;101722.44;2073653;28;20169;-67
2022/06/03 04:23:10;;;;;;;14.77;8.20;;;;;;;22.77;100.00;101720.00;2073578;28;20174;-68
2022/06/03 04:24:32;;;;;;;12.30;8.57;;;;;;;22.82;100.00;101722.13;2073644;28;20172;-67
2022/06/03 04:26:10;;;;;;;13.57;8.83;;;;;;;22.86;100.00;101719.09;2064719;28;20174;-67
2022/06/03 04:27:16;;;;;;;10.20;8.10;;;;;;;22.85;100.00;101728.84;2070113;28;20304;-69
2022/06/03 04:28:31;;;;;;;9.90;7.37;;;;;;;22.93;100.00;101721.53;2073521;28;20177;-68
2022/06/03 04:29:52;;;;;;;10.93;8.17;;;;;;;22.91;100.00;101718.41;2073599;28;20161;-67
2022/06/03 04:31:41;;;;;;;13.23;8.43;;;;;;;22.94;100.00;101723.09;2073599;28;20173;-68
2022/06/03 04:33:23;;;;;;;9.03;7.60;;;;;;;23.00;100.00;101726.78;2073399;28;20209;-68
2022/06/03 04:35:05;;;;;;;12.80;7.97;;;;;;;22.38;100.00;101618.94;2064288;28;20197;-67
2022/06/03 04:36:11;;;;;;;11.20;7.60;;;;;;;23.12;100.00;101731.31;2070361;28;20166;-68
2022/06/03 04:37:29;;;;;;;11.30;7.63;;;;;;;23.14;100.00;101728.78;2072993;28;20205;-68
2022/06/03 04:38:44;;;;;;;9.40;7.43;;;;;;;23.17;100.00;101733.44;2073197;28;20184;-68
2022/06/03 04:40:12;;;;;;;9.30;7.20;;;;;;;23.22;100.00;101732.75;2073394;28;20216;-67
2022/06/03 04:41:31;;;;;;;12.20;8.00;;;;;;;23.28;100.00;101737.22;2073291;28;20173;-68
2022/06/03 04:42:50;;;;;;;10.37;7.90;;;;;;;23.32;100.00;101734.97;2073127;28;20173;-68
2022/06/03 04:44:09;;;;;;;13.43;8.37;;;;;;;23.37;100.00;101734.28;2073201;28;20184;-68
2022/06/03 04:45:12;;;;;;;11.90;7.67;;;;;;;23.43;100.00;101737.19;2073227;28;20222;-68
2022/06/03 04:46:39;;;;;;;12.70;7.20;;;;;;;23.49;100.00;101744.44;2073262;28;20282;-67
2022/06/03 04:47:54;;;;;;;11.17;8.13;;;;;;;23.53;100.00;101742.19;2073297;28;20158;-68
2022/06/03 04:49:19;;;;;;;17.23;13.53;;;;;;;23.60;100.00;101738.16;2073059;28;20176;-68
2022/06/03 04:50:57;;;;;;;16.90;13.30;;;;;;;23.63;100.00;101740.00;2072927;28;20173;-67
2022/06/03 04:52:16;;;;;;;15.67;11.17;;;;;;;23.70;100.00;101748.84;2073019;28;20178;-68
2022/06/03 04:53:50;;;;;;;13.40;9.30;;;;;;;23.74;100.00;101745.81;2071178;28;20265;-68
2022/06/03 04:55:28;;;;;;;11.77;8.23;;;;;;;23.87;100.00;101754.69;2064701;28;20489;-68
2022/06/03 04:57:10;;;;;;;12.50;8.03;;;;;;;23.88;100.00;101751.38;2039756;29;20196;-68
2022/06/03 04:58:13;;;;;;;14.37;8.40;;;;;;;23.79;100.00;101745.84;2057265;28;20198;-69
2022/06/03 05:00:11;;;;;;;12.10;8.10;;;;;;;23.76;100.00;101748.91;2064933;28;20185;-68
2022/06/03 05:01:55;;;;;;;17.07;8.50;;;;;;;23.77;100.00;101754.09;2043323;28;20199;-68
2022/06/03 05:03:17;;;;;;;12.17;8.43;;;;;;;23.80;100.00;101755.13;2055877;28;20590;-69
2022/06/03 05:05:06;;;;;;;11.33;8.20;;;;;;;23.77;100.00;101758.94;2060283;28;20205;-68
2022/06/03 05:06:30;;;;;;;12.67;8.77;;;;;;;23.81;100.00;101753.84;2056183;28;20182;-69
2022/06/03 05:08:21;;;;;;;14.50;8.33;;;;;;;23.86;100.00;101751.09;2056415;28;20630;-68
2022/06/03 05:09:30;;;;;;;15.63;8.20;;;;;;;23.95;100.00;101756.63;2048133;29;20194;-69
2022/06/03 05:11:08;;;;;;;12.33;8.70;;;;;;;23.99;100.00;101760.03;2068105;28;20570;-69
2022/06/03 05:12:37;;;;;;;13.40;8.20;;;;;;;24.08;100.00;101759.88;2059628;28;20185;-68
2022/06/03 05:13:53;;;;;;;13.13;7.97;;;;;;;24.14;100.00;101766.38;2065194;28;20196;-68
2022/06/03 05:15:14;;;;;;;17.93;8.60;;;;;;;24.21;100.00;101767.97;2073229;28;20169;-68
2022/06/03 05:16:41;;;;;;;11.10;8.20;;;;;;;24.31;100.00;101764.47;2073156;28;20677;-68
2022/06/03 05:17:43;;;;;;;9.57;8.00;;;;;;;24.34;100.00;101766.31;2072717;28;20158;-68
2022/06/03 05:18:52;;;;;;;14.23;7.73;;;;;;;24.30;100.00;101759.31;2071839;28;20643;-68
2022/06/03 05:20:05;;;;;;;11.03;7.67;;;;;;;24.31;100.00;101761.63;2073146;28;20220;-68
2022/06/03 05:21:33;;;;;;;11.13;7.77;;;;;;;24.31;100.00;101764.47;2064410;28;20178;-68
2022/06/03 05:23:03;;;;;;;9.97;7.83;;;;;;;24.29;100.00;101757.75;2068357;28;20670;-68
2022/06/03 05:24:36;;;;;;;9.17;8.17;;;;;;;24.31;100.00;101755.97;2073001;28;20549;-69
2022/06/03 05:26:10;;;;;;;11.73;8.50;;;;;;;24.31;100.00;101761.63;2064693;28;20196;-68
2022/06/03 05:27:32;;;;;;;12.80;8.57;;;;;;;24.26;100.00;101762.34;2064401;28;20190;-68
2022/06/03 05:29:17;;;;;;;12.53;8.73;;;;;;;24.26;100.00;101759.53;2067420;28;20231;-69
2022/06/03 05:30:39;;;;;;;10.30;8.37;;;;;;;24.23;100.00;101763.38;2064246;28;20193;-67
2022/06/03 05:32:21;;;;;;;11.10;8.03;;;;;;;24.25;100.00;101760.06;2067450;28;20248;-68
2022/06/03 05:33:39;;;;;;;12.80;8.40;;;;;;;24.24;100.00;101762.09;2073939;28;20681;-68
2022/06/03 05:34:43;;;;;;;11.30;7.93;;;;;;;24.30;100.00;101762.16;2072389;28;20170;-68
2022/06/03 05:36:14;;;;;;;14.47;9.00;;;;;;;24.28;100.00;101762.66;2074267;28;20170;-67
2022/06/03 05:37:37;;;;;;;10.90;8.30;;;;;;;24.33;100.00;101755.47;2064186;28;20207;-69
2022/06/03 05:38:46;;;;;;;9.70;8.23;;;;;;;24.35;100.00;101759.38;2059563;28;20217;-68
2022/06/03 05:39:50;;;;;;;11.33;8.53;;;;;;;24.38;100.00;101754.75;2069556;28;20647;-68
2022/06/03 05:43:18;;;;;;;10.47;8.30;;;;;;;24.44;100.00;101758.41;2072971;28;20162;-68
2022/06/03 05:44:36;;;;;;;11.93;8.13;;;;;;;24.45;100.00;101752.25;2071753;28;20181;-68
2022/06/03 05:45:52;;;;;;;10.27;8.30;;;;;;;24.44;100.00;101747.88;2064048;28;20229;-68
2022/06/03 05:47:08;;;;;;;12.13;8.33;;;;;;;24.48;100.00;101753.28;2063959;28;20190;-68
2022/06/03 05:48:38;;;;;;;12.60;8.87;;;;;;;24.51;100.00;101757.97;2066171;28;20248;-68
2022/06/03 05:50:00;;;;;;;11.70;8.23;;;;;;;24.57;100.00;101768.06;2081087;28;20272;-68
2022/06/03 05:51:07;;;;;;;14.27;8.73;;;;;;;24.27;100.00;101715.78;2079421;28;20646;-69
2022/06/03 05:52:21;;;;;;;12.87;8.90;;;;;;;24.63;100.00;101765.31;2065600;28;20256;-68
2022/06/03 05:53:34;;;;;;;12.83;8.73;;;;;;;24.16;100.00;101690.16;2065413;28;20285;-68
2022/06/03 05:54:47;;;;;;;15.07;9.00;;;;;;;24.77;100.00;101756.66;2067577;28;20206;-68
2022/06/03 05:56:15;;;;;;;14.00;8.00;;;;;;;24.86;100.00;101758.53;2058501;28;20167;-68
2022/06/03 05:57:29;;;;;;;10.47;8.40;;;;;;;24.96;100.00;101757.06;2069654;28;20196;-68
2022/06/03 05:58:49;;;;;;;10.70;8.43;;;;;;;25.04;100.00;101758.16;2074450;28;20166;-68
2022/06/03 06:00:17;;;;;;;15.27;8.00;;;;;;;24.72;100.00;101697.09;2074545;28;20257;-68
2022/06/03 06:01:29;;;;;;;10.10;7.70;;;;;;;25.12;100.00;101747.91;2074073;28;20548;-70
2022/06/03 06:02:36;;;;;;;9.63;7.87;;;;;;;25.12;100.00;101754.34;2074527;28;20671;-68
2022/06/03 06:03:57;;;;;;;9.57;8.00;;;;;;;24.93;100.00;101735.41;2074334;28;20608;-68
2022/06/03 06:05:19;;;;;;;10.10;7.87;;;;;;;25.07;100.00;101748.66;2071585;28;20173;-68
2022/06/03 06:06:31;;;;;;;12.20;7.90;;;;;;;24.81;100.00;101711.06;2074313;28;20223;-68
2022/06/03 06:08:05;;;;;;;11.63;8.03;;;;;;;24.91;100.00;101724.56;2074690;28;20181;-68
2022/06/03 06:09:31;;;;;;;11.53;8.63;;;;;;;25.12;100.00;101740.16;2058061;28;20720;-69
2022/06/03 06:11:15;;;;;;;14.13;7.90;;;;;;;24.67;100.00;101663.81;2060904;28;20186;-68
2022/06/03 06:12:29;;;;;;;11.70;7.17;;;;;;;25.29;100.00;101728.94;2063990;28;20221;-68
2022/06/03 06:13:58;;;;;;;8.50;7.27;;;;;;;25.35;100.00;101735.41;2066344;28;20178;-69
2022/06/03 06:15:27;;;;;;;9.03;7.87;;;;;;;25.32;100.00;101728.69;2066117;28;20155;-68